Amherst, Wisconsin
Current Conditions -  °F | °C
As of 2:35 PM on Thursday 20 Nov 2014 (Local Time) from KSTE Reporting Station
Broken Clouds Broken Clouds  
Wind Chill: -3°   Ceiling: 3400
Heat Index: 13°   Visibility: 10mi
Dew Point: -1°   Wind: 15mph
Humidity: 54%   Direction: 290°WNW
Pressure: 30.02"   Gusts: 25mph
Location:  44.45°N, 89.28°W
Report Text: KSTE 202035Z AUTO 29013G22KT 270V330 10SM BKN034 M11/M18 A3002 RMK AO2 T11081185
Loading
Personal Weather Stations






























Interactive Weather Map New forecast layout! Learn more

10-Day Weather Forecast

Advertisements
Track Severe Weather on mobile